Aeroporto :
LOGIN :

Iscrizione | Disclaimer

   EN    FR    IT 

 










Sommario :    VFR   VFR Marginale   IFR   IFR Intensivo   IFR Molto Intensivo
Visibilità : 
Base nubi : 
>= 8 km
>= 3000ft
5 / 8 km
1000 / 3000 ft
1500m / 5 km
500 / 1000 ft
800 / 1500m
200 / 500 ft
< 800m
< 200 ft
Simboli :   Temporali  Nebbia  Neve Forte  Precipitazioni Forti  Vento > 20 kt
SIGMETs :   Varie  Temporali  Ghiacco  Turbolenza  Onda orograficha  Ceneri Vulcaniche






- Altitudine del aeroporto : 919 ft
- Codice IATA : IFO


UKLI - Ivano Frankivs'k

ULTIMO METAR :
  • 231130Z 29005MPS 220V340 CAVOK 11/M01 Q1013 R28/090070 NOSIG

METARs OBSOLETI :
  • 231100Z 29005MPS 250V010 CAVOK 11/M01 Q1014 R28/090070 NOSIG
  • 231030Z 28006MPS 250V330 CAVOK 12/M01 Q1014 R28/090070 NOSIG
  • 231000Z 23007MPS CAVOK 12/M01 Q1015 R28/090070 NOSIG
  • 230930Z 24006MPS CAVOK 12/M01 Q1015 R28/090070 NOSIG
  • 230900Z 25007MPS CAVOK 11/M02 Q1015 R28/090070 NOSIG

TAF TAF UKLI
Valido dal 23 a 12 ore il 23 a 21 ore UTC


231105Z 2312/2321 25007G12MPS 5000 -SHRA SCT020CB BKN030
TEMPO 2312/2320 27015G20MPS 2100 -SHRASN BKN007 BKN012CB



MetMap, La meteo Aeronautica in un colpo d'occhio ! - Copyright ORBIFLY Dicembre 2007 - Disclaimer

ORBIFLY MET'MAP TEAM :

Programmazione e sviluppo : Alexandra Zaïnal
Concezione : Baudouin d'Aumeries
Aiuto per la programmazione : Marc-Olivier Méhu
Supporto tecnico e logistico : Manuel Goepfert
Aiuto per la traduzione : Arnaldo La Scala

Contatto : metmap@orbifly.com




FONTI E CREDITI :

   NOAA